Time;durP1;ratioP1;P1;durP2;ratioP2;P2;SDS_P1;SDS_P2;PMS_P1;PMS_P2;Temp;Humidity;BMP_temperature;BMP_pressure;BME280_temperature;BME280_humidity;BME280_pressure;Samples;Min_cycle;Max_cycle;Signal;HPM_P1;HPM_P2
2024/01/06 00:01:25;;;;;;;3.80;3.33;;;;;;;5.75;100.00;-22078.16;5034043;28;20289;-66
2024/01/06 00:03:50;;;;;;;2.10;2.00;;;;;;;5.90;100.00;-21765.53;5033955;28;20254;-68
2024/01/06 00:06:15;;;;;;;2.07;1.97;;;;;;;6.24;100.00;-21457.22;5033928;28;20210;-64
2024/01/06 00:08:41;;;;;;;2.10;2.00;;;;;;;6.14;100.00;-20188.38;5033644;28;20222;-66
2024/01/06 00:11:06;;;;;;;3.20;2.90;;;;;;;6.00;100.00;-20818.47;5033970;28;20167;-68
2024/01/06 00:13:32;;;;;;;2.90;2.70;;;;;;;5.77;100.00;-21129.66;5038003;28;20171;-68
2024/01/06 00:15:57;;;;;;;1.90;1.80;;;;;;;6.07;100.00;-21453.22;5033536;28;20662;-65
2024/01/06 00:18:23;;;;;;;2.27;2.10;;;;;;;5.85;100.00;-21447.75;5034181;28;20176;-65
2024/01/06 00:20:48;;;;;;;2.53;2.33;;;;;;;6.07;100.00;-21453.22;5032969;28;20179;-66
2024/01/06 00:23:13;;;;;;;1.90;1.80;;;;;;;6.09;100.00;-21453.59;5033305;28;20623;-68
2024/01/06 00:25:39;;;;;;;3.23;2.73;;;;;;;6.14;100.00;-21454.94;5033891;28;20694;-64
2024/01/06 00:28:04;;;;;;;3.17;2.83;;;;;;;5.91;100.00;-21132.88;5033903;28;20175;-66
2024/01/06 00:30:30;;;;;;;2.53;2.33;;;;;;;5.97;100.00;-21134.19;5033508;28;20168;-64
2024/01/06 00:32:55;;;;;;;4.37;2.57;;;;;;;6.00;100.00;-21134.91;5033313;28;20427;-67
2024/01/06 00:35:20;;;;;;;1.70;1.60;;;;;;;6.00;100.00;-21135.00;5033330;28;20203;-66
2024/01/06 00:37:46;;;;;;;2.87;2.57;;;;;;;6.27;100.00;-20824.50;5032037;28;20202;-67
2024/01/06 00:40:12;;;;;;;3.80;3.43;;;;;;;5.93;100.00;-20500.28;5032910;28;20302;-68
2024/01/06 00:42:38;;;;;;;2.80;2.57;;;;;;;6.29;100.00;-20508.22;5032895;28;20321;-66
2024/01/06 00:45:04;;;;;;;2.70;2.33;;;;;;;5.93;100.00;-20500.19;5032649;28;20280;-66
2024/01/06 00:47:29;;;;;;;3.13;2.50;;;;;;;6.23;100.00;-20506.97;5030914;28;20183;-66
2024/01/06 00:49:55;;;;;;;3.13;2.83;;;;;;;5.98;100.00;-20501.31;5032954;28;20247;-68
2024/01/06 00:52:20;;;;;;;5.23;4.27;;;;;;;6.31;100.00;-20508.78;5032547;28;20258;-66
2024/01/06 00:54:46;;;;;;;3.27;3.07;;;;;;;6.31;100.00;-20191.91;5032400;28;20178;-65
2024/01/06 00:57:12;;;;;;;2.57;2.37;;;;;;;6.37;100.00;-20193.25;5032833;28;20262;-65
2024/01/06 00:59:37;;;;;;;2.80;2.07;;;;;;;6.22;100.00;-20190.16;5032799;28;20246;-65
2024/01/06 01:02:03;;;;;;;3.30;2.40;;;;;;;6.18;100.00;-19872.53;5032394;28;20172;-68
2024/01/06 01:04:28;;;;;;;3.17;2.93;;;;;;;6.39;100.00;-19560.06;5031112;28;20179;-65
2024/01/06 01:06:54;;;;;;;3.50;3.20;;;;;;;6.30;100.00;-19875.00;5032379;28;20206;-67
2024/01/06 01:09:19;;;;;;;4.60;3.50;;;;;;;6.22;100.00;-19873.38;5032178;28;20639;-68
2024/01/06 01:11:44;;;;;;;2.67;2.33;;;;;;;6.36;100.00;-19242.44;5030671;28;20203;-66
2024/01/06 01:14:10;;;;;;;2.03;1.93;;;;;;;6.24;100.00;-18923.22;5033909;28;20175;-65
2024/01/06 01:16:35;;;;;;;3.10;2.77;;;;;;;6.24;100.00;-19240.00;5030722;28;20233;-64
2024/01/06 01:19:02;;;;;;;3.63;3.33;;;;;;;5.94;100.00;-19233.91;5030602;28;20195;-67
2024/01/06 01:21:27;;;;;;;2.40;2.20;;;;;;;5.51;100.00;-20490.88;5030227;28;20267;-68
2024/01/06 01:23:53;;;;;;;3.03;2.57;;;;;;;5.66;100.00;-20494.16;5030186;28;20206;-67
2024/01/06 01:26:18;;;;;;;2.53;2.33;;;;;;;5.47;100.00;-20489.84;5031877;28;20175;-66
2024/01/06 01:28:44;;;;;;;2.97;2.63;;;;;;;5.37;100.00;-20487.56;5032207;28;20207;-69
2024/01/06 01:31:09;;;;;;;2.43;2.23;;;;;;;5.64;100.00;-20493.81;5032320;28;20642;-66
2024/01/06 01:33:35;;;;;;;2.37;2.17;;;;;;;5.40;100.00;-20488.25;5031967;28;20223;-64
2024/01/06 01:36:00;;;;;;;2.77;2.40;;;;;;;5.33;100.00;-20170.63;5032292;28;20187;-65
2024/01/06 01:38:25;;;;;;;3.27;2.80;;;;;;;5.36;100.00;-20487.34;5031669;28;20274;-67
2024/01/06 01:40:51;;;;;;;2.03;1.83;;;;;;;5.43;100.00;-20805.22;5032340;28;20172;-65
2024/01/06 01:43:20;;;;;;;1.70;1.60;;;;;;;5.56;100.00;-20492.00;5032547;28;20175;-67
2024/01/06 01:45:50;;;;;;;3.23;2.57;;;;;;;5.45;100.00;-20805.81;5032212;28;20521;-66
2024/01/06 01:48:15;;;;;;;2.27;2.17;;;;;;;5.53;100.00;-20807.53;5032602;28;20184;-67
2024/01/06 01:50:40;;;;;;;2.13;2.00;;;;;;;5.38;100.00;-20804.06;5032098;28;20175;-67
2024/01/06 01:53:06;;;;;;;3.07;2.43;;;;;;;5.31;100.00;-20802.66;5031765;28;20175;-69
2024/01/06 01:55:31;;;;;;;2.10;2.00;;;;;;;5.38;100.00;-21120.41;5031942;28;20199;-68
2024/01/06 01:57:57;;;;;;;2.27;2.17;;;;;;;5.17;100.00;-20799.41;5031920;28;20171;-70
2024/01/06 02:00:22;;;;;;;1.77;1.67;;;;;;;5.31;100.00;-21118.88;5031538;28;20229;-65
2024/01/06 02:02:48;;;;;;;2.10;1.90;;;;;;;5.30;100.00;-21118.50;5031535;28;20175;-67
2024/01/06 02:05:14;;;;;;;2.57;2.37;;;;;;;5.07;100.00;-21113.16;5031504;28;20183;-67
2024/01/06 02:07:40;;;;;;;2.63;2.43;;;;;;;5.23;100.00;-21116.84;5031499;28;20190;-67
2024/01/06 02:10:06;;;;;;;2.03;1.90;;;;;;;5.08;100.00;-21113.41;5031944;28;20175;-68
2024/01/06 02:12:32;;;;;;;2.50;2.30;;;;;;;5.23;100.00;-21116.97;5032132;28;20171;-67
2024/01/06 02:14:57;;;;;;;2.23;2.03;;;;;;;5.18;100.00;-21115.66;5031764;28;20333;-66
2024/01/06 02:17:23;;;;;;;2.20;2.10;;;;;;;5.07;100.00;-21113.03;5035502;28;20206;-64
2024/01/06 02:19:48;;;;;;;2.27;2.07;;;;;;;5.01;100.00;-21111.63;5031565;28;20611;-66
2024/01/06 02:22:13;;;;;;;1.97;1.87;;;;;;;4.95;100.00;-21426.16;5032016;28;20168;-69
2024/01/06 02:24:39;;;;;;;1.50;1.40;;;;;;;4.64;100.00;-21418.75;5031800;28;20183;-68
2024/01/06 02:27:04;;;;;;;2.70;2.50;;;;;;;4.84;100.00;-21423.63;5031232;28;20163;-66
2024/01/06 02:29:30;;;;;;;2.30;2.10;;;;;;;4.75;100.00;-21421.44;5031086;28;20195;-66
2024/01/06 02:31:55;;;;;;;1.70;1.60;;;;;;;4.69;100.00;-21420.09;5031009;28;20215;-65
2024/01/06 02:34:20;;;;;;;2.10;2.00;;;;;;;4.89;100.00;-21424.84;5031200;28;20245;-66
2024/01/06 02:36:46;;;;;;;6.43;3.53;;;;;;;4.58;100.00;-21733.06;5029632;28;20253;-68
2024/01/06 02:39:11;;;;;;;1.80;1.70;;;;;;;4.51;100.00;-21731.44;5030945;28;20175;-66
2024/01/06 02:41:36;;;;;;;3.00;2.43;;;;;;;4.59;100.00;-22049.03;5029848;28;20215;-68
2024/01/06 02:44:03;;;;;;;2.50;2.33;;;;;;;4.79;100.00;-22054.22;5031196;28;20286;-66
2024/01/06 02:46:29;;;;;;;2.37;1.83;;;;;;;4.81;100.00;-22370.53;5030981;28;20333;-67
2024/01/06 02:48:54;;;;;;;2.23;2.13;;;;;;;4.99;100.00;-22059.16;5030436;28;20179;-67
2024/01/06 02:51:20;;;;;;;3.27;2.97;;;;;;;4.98;100.00;-22058.91;5030620;28;20279;-65
2024/01/06 02:53:45;;;;;;;3.50;2.83;;;;;;;5.18;100.00;-22063.97;5031191;28;20270;-68
2024/01/06 02:56:11;;;;;;;2.07;1.97;;;;;;;4.77;100.00;-21737.75;5030716;28;20671;-65
2024/01/06 02:58:37;;;;;;;3.27;2.57;;;;;;;4.90;100.00;-21741.00;5030777;28;20183;-65
2024/01/06 03:01:03;;;;;;;2.67;2.37;;;;;;;4.94;100.00;-21742.00;5031123;28;20233;-68
2024/01/06 03:03:28;;;;;;;1.80;1.60;;;;;;;4.83;100.00;-22055.09;5030968;28;20670;-69
2024/01/06 03:05:53;;;;;;;3.10;2.80;;;;;;;4.95;100.00;-22058.16;5030617;28;20674;-70
2024/01/06 03:08:19;;;;;;;1.90;1.80;;;;;;;4.98;100.00;-22058.91;5030261;28;20171;-65
2024/01/06 03:10:44;;;;;;;2.43;2.27;;;;;;;4.81;100.00;-22054.59;5030873;28;20186;-67
2024/01/06 03:13:10;;;;;;;1.80;1.70;;;;;;;4.82;100.00;-22054.84;5030661;28;20630;-68
2024/01/06 03:15:35;;;;;;;2.23;2.07;;;;;;;4.84;100.00;-22055.38;5030741;28;20619;-67
2024/01/06 03:18:00;;;;;;;3.07;2.83;;;;;;;4.99;100.00;-21743.22;5030697;28;20257;-64
2024/01/06 03:20:26;;;;;;;2.27;2.07;;;;;;;5.01;100.00;-21743.72;5032848;28;20198;-68
2024/01/06 03:22:51;;;;;;;2.40;2.23;;;;;;;5.08;100.00;-22061.31;5030905;28;20201;-64
2024/01/06 03:25:17;;;;;;;2.10;2.00;;;;;;;5.04;100.00;-21744.34;5030386;28;20272;-68
2024/01/06 03:27:43;;;;;;;1.90;1.80;;;;;;;4.87;100.00;-22056.13;5030698;28;20171;-66
2024/01/06 03:30:09;;;;;;;2.47;2.27;;;;;;;5.05;100.00;-21744.72;5030480;28;20172;-68
2024/01/06 03:32:34;;;;;;;1.90;1.80;;;;;;;4.84;100.00;-22055.38;5030761;28;20230;-67
2024/01/06 03:35:00;;;;;;;2.03;1.93;;;;;;;4.81;100.00;-22054.59;5030626;28;20180;-66
2024/01/06 03:37:25;;;;;;;2.30;2.20;;;;;;;4.82;100.00;-22054.97;5030741;28;20175;-67
2024/01/06 03:39:51;;;;;;;2.63;2.07;;;;;;;4.84;100.00;-22055.38;5029162;28;20186;-67
2024/01/06 03:42:16;;;;;;;2.67;2.43;;;;;;;4.98;100.00;-22058.91;5030447;28;20262;-66
2024/01/06 03:44:41;;;;;;;2.87;2.67;;;;;;;5.12;100.00;-22062.47;5030404;28;20218;-64
2024/01/06 03:47:07;;;;;;;2.67;2.47;;;;;;;4.99;100.00;-22059.03;5030589;28;20661;-66
2024/01/06 03:49:32;;;;;;;3.97;2.93;;;;;;;4.97;100.00;-22058.66;5030350;28;20262;-67
2024/01/06 03:51:58;;;;;;;2.47;2.33;;;;;;;5.18;100.00;-21747.94;5030391;28;20218;-66
2024/01/06 03:54:23;;;;;;;3.77;3.47;;;;;;;5.16;100.00;-21431.25;5030245;28;20175;-67
2024/01/06 03:56:49;;;;;;;3.30;2.50;;;;;;;5.19;100.00;-21748.06;5029866;28;20261;-66
2024/01/06 03:59:15;;;;;;;1.93;1.83;;;;;;;5.20;100.00;-21116.25;5030427;28;20170;-65
2024/01/06 04:01:40;;;;;;;2.13;1.93;;;;;;;4.97;100.00;-21110.66;5032468;28;20199;-64
2024/01/06 04:04:06;;;;;;;1.83;1.73;;;;;;;5.27;100.00;-21434.06;5033811;28;20632;-64
2024/01/06 04:06:32;;;;;;;2.27;2.10;;;;;;;5.25;100.00;-21433.56;5034098;28;20179;-67
2024/01/06 04:08:58;;;;;;;4.83;4.33;;;;;;;5.20;100.00;-21432.34;5034006;28;20255;-68
2024/01/06 04:11:23;;;;;;;2.23;2.13;;;;;;;4.98;100.00;-21111.03;5032551;28;20175;-67
2024/01/06 04:13:49;;;;;;;2.50;2.27;;;;;;;5.37;100.00;-20487.69;5033197;28;20206;-66
2024/01/06 04:16:14;;;;;;;2.10;1.90;;;;;;;5.32;100.00;-20802.78;5033139;28;20207;-66
2024/01/06 04:18:40;;;;;;;2.20;2.10;;;;;;;5.10;100.00;-20797.78;5033288;28;20246;-66
2024/01/06 04:21:05;;;;;;;1.60;1.50;;;;;;;5.26;100.00;-20801.38;5037580;28;20196;-67
2024/01/06 04:23:31;;;;;;;6.93;3.40;;;;;;;5.34;100.00;-20803.25;5033272;28;20584;-64
2024/01/06 04:25:56;;;;;;;2.87;2.03;;;;;;;5.27;100.00;-20485.41;5033262;28;20190;-65
2024/01/06 04:28:22;;;;;;;3.40;3.10;;;;;;;5.29;100.00;-20169.63;5032993;28;20179;-64
2024/01/06 04:30:47;;;;;;;4.87;3.70;;;;;;;5.20;100.00;-19851.50;5032912;28;20241;-65
2024/01/06 04:33:13;;;;;;;2.47;2.27;;;;;;;5.20;100.00;-20167.75;5032921;28;20700;-67
2024/01/06 04:35:38;;;;;;;2.60;2.40;;;;;;;5.18;100.00;-20167.28;5033107;28;20195;-69
2024/01/06 04:38:04;;;;;;;4.23;2.50;;;;;;;5.15;100.00;-19850.31;5032990;28;20305;-66
2024/01/06 04:40:30;;;;;;;2.00;1.90;;;;;;;4.89;100.00;-19844.78;5032862;28;20202;-68
2024/01/06 04:42:55;;;;;;;3.77;2.43;;;;;;;5.22;100.00;-19535.69;5032862;28;20228;-69
2024/01/06 04:45:23;;;;;;;3.07;2.77;;;;;;;5.05;100.00;-19215.84;5033328;28;20260;-67
2024/01/06 04:47:48;;;;;;;3.77;3.00;;;;;;;5.06;100.00;-19532.28;5032866;28;20171;-65
2024/01/06 04:50:14;;;;;;;2.93;2.03;;;;;;;4.77;100.00;-19526.25;5033119;28;20623;-67
2024/01/06 04:52:39;;;;;;;5.63;3.07;;;;;;;5.03;100.00;-19531.66;5033111;28;20175;-67
2024/01/06 04:55:05;;;;;;;2.00;1.90;;;;;;;4.97;100.00;-19846.53;5033313;28;20255;-65
2024/01/06 04:57:30;;;;;;;2.33;2.13;;;;;;;4.90;100.00;-19212.75;5031554;28;20559;-66
2024/01/06 04:59:55;;;;;;;3.83;3.03;;;;;;;4.91;100.00;-19212.97;5033061;28;20178;-67
2024/01/06 05:02:21;;;;;;;2.67;2.40;;;;;;;4.92;100.00;-19529.22;5032541;28;20258;-68
2024/01/06 05:04:46;;;;;;;3.50;2.97;;;;;;;4.92;100.00;-19529.22;5031362;28;20199;-68
2024/01/06 05:07:12;;;;;;;1.87;1.77;;;;;;;4.77;100.00;-19842.28;5032838;28;20203;-67
2024/01/06 05:09:37;;;;;;;3.00;2.77;;;;;;;4.43;100.00;-19834.91;5032706;28;20183;-65
2024/01/06 05:12:03;;;;;;;8.53;2.93;;;;;;;5.00;100.00;-19847.19;5031994;28;20207;-67
2024/01/06 05:14:28;;;;;;;2.90;2.40;;;;;;;4.97;100.00;-19846.41;5032401;28;20234;-68
2024/01/06 05:16:54;;;;;;;2.63;2.43;;;;;;;4.53;100.00;-20152.88;5032522;28;20229;-65
2024/01/06 05:19:20;;;;;;;1.83;1.67;;;;;;;4.99;100.00;-20163.09;5032806;28;20273;-66
2024/01/06 05:21:49;;;;;;;2.80;2.27;;;;;;;4.89;100.00;-19844.78;5032596;28;20242;-65
2024/01/06 05:24:14;;;;;;;2.67;2.47;;;;;;;4.98;100.00;-19846.63;5036039;28;20183;-69
2024/01/06 05:26:40;;;;;;;3.20;2.47;;;;;;;5.03;100.00;-19847.72;5032531;28;20567;-65
2024/01/06 05:29:05;;;;;;;2.63;2.43;;;;;;;5.04;100.00;-19847.94;5032431;28;20314;-68
2024/01/06 05:31:31;;;;;;;2.47;2.27;;;;;;;4.80;100.00;-19210.81;5032032;28;20182;-69
2024/01/06 05:33:56;;;;;;;2.47;2.27;;;;;;;4.90;100.00;-19528.91;5031966;28;20179;-66
2024/01/06 05:36:22;;;;;;;2.33;2.13;;;;;;;4.97;100.00;-19530.38;5032023;28;20281;-67
2024/01/06 05:38:47;;;;;;;2.83;2.53;;;;;;;5.00;100.00;-19847.19;5032189;28;20172;-66
2024/01/06 05:41:12;;;;;;;3.27;2.30;;;;;;;4.97;100.00;-19846.41;5031845;28;20264;-64
2024/01/06 05:43:38;;;;;;;2.23;2.13;;;;;;;4.94;100.00;-19845.88;5030551;28;20198;-65
2024/01/06 05:46:04;;;;;;;2.77;2.57;;;;;;;4.91;100.00;-19845.22;5031656;28;20179;-68
2024/01/06 05:48:29;;;;;;;2.77;2.57;;;;;;;5.01;100.00;-20163.53;5031657;28;20180;-68
2024/01/06 05:50:55;;;;;;;2.10;2.00;;;;;;;5.00;100.00;-19847.19;5031759;28;20163;-68
2024/01/06 05:53:20;;;;;;;2.27;2.13;;;;;;;4.77;100.00;-20158.31;5032110;28;20242;-69
2024/01/06 05:55:46;;;;;;;5.27;3.80;;;;;;;4.90;100.00;-20161.09;5031985;28;20266;-67
2024/01/06 05:58:11;;;;;;;3.20;2.90;;;;;;;4.86;100.00;-20476.22;5032113;28;20277;-68
2024/01/06 06:00:37;;;;;;;2.90;2.60;;;;;;;4.72;100.00;-20473.16;5031848;28;20237;-66
2024/01/06 06:03:03;;;;;;;1.87;1.77;;;;;;;4.59;100.00;-20470.06;5031658;28;20709;-66
2024/01/06 06:05:28;;;;;;;2.73;2.53;;;;;;;4.89;100.00;-20477.00;5032044;28;20179;-67
2024/01/06 06:07:54;;;;;;;3.10;2.70;;;;;;;4.84;100.00;-20475.88;5031827;28;20167;-68
2024/01/06 06:10:20;;;;;;;4.80;2.77;;;;;;;4.86;100.00;-20476.31;5031725;28;20289;-68
2024/01/06 06:12:46;;;;;;;2.77;2.57;;;;;;;4.61;100.00;-20470.66;5031599;28;20198;-65
2024/01/06 06:15:11;;;;;;;3.43;3.10;;;;;;;4.85;100.00;-20791.97;5030086;28;20202;-69
2024/01/06 06:17:37;;;;;;;2.57;2.37;;;;;;;4.62;100.00;-20786.75;5031556;28;20262;-68
2024/01/06 06:20:03;;;;;;;4.20;3.60;;;;;;;4.70;100.00;-20788.59;5031321;28;20171;-67
2024/01/06 06:22:32;;;;;;;2.67;2.47;;;;;;;4.84;100.00;-20791.84;5031997;28;20320;-66
2024/01/06 06:25:00;;;;;;;2.67;2.43;;;;;;;4.64;100.00;-20787.09;5032163;28;20167;-68
2024/01/06 06:27:26;;;;;;;3.10;2.60;;;;;;;4.93;100.00;-20793.84;5033097;28;20176;-69
2024/01/06 06:29:52;;;;;;;1.80;1.70;;;;;;;4.94;100.00;-20794.06;5031274;28;20593;-68
2024/01/06 06:32:21;;;;;;;2.30;2.20;;;;;;;4.97;100.00;-20478.72;5030916;28;20610;-65
2024/01/06 06:34:46;;;;;;;11.27;2.43;;;;;;;4.77;100.00;-20474.16;5031135;28;20183;-65
2024/01/06 06:37:11;;;;;;;2.90;2.70;;;;;;;4.98;100.00;-20795.00;5028345;28;20756;-67
2024/01/06 06:39:37;;;;;;;4.93;3.10;;;;;;;4.72;100.00;-20473.16;5029625;28;20221;-68
2024/01/06 06:42:12;;;;;;;3.67;3.37;;;;;;;4.84;100.00;-20791.75;5029729;28;20175;-67
2024/01/06 06:44:37;;;;;;;5.57;4.70;;;;;;;5.00;100.00;-21111.50;5030523;28;20179;-68
2024/01/06 06:47:07;;;;;;;6.67;4.70;;;;;;;5.08;100.00;-21113.28;5031039;28;20225;-69
2024/01/06 06:49:35;;;;;;;3.63;3.20;;;;;;;4.96;100.00;-20794.53;5029214;28;20176;-68
2024/01/06 06:52:00;;;;;;;3.30;2.33;;;;;;;4.95;100.00;-21110.31;5030449;28;20171;-65
2024/01/06 06:54:25;;;;;;;3.40;3.10;;;;;;;5.13;100.00;-21114.47;5030714;28;20178;-69
2024/01/06 06:56:51;;;;;;;3.77;2.73;;;;;;;5.12;100.00;-21430.28;5030471;28;20203;-66
2024/01/06 06:59:16;;;;;;;3.87;3.47;;;;;;;5.25;100.00;-21433.56;5030469;28;20182;-67
2024/01/06 07:01:42;;;;;;;2.67;2.47;;;;;;;5.04;100.00;-21112.44;5030688;28;20628;-69
2024/01/06 07:04:07;;;;;;;3.27;2.97;;;;;;;5.39;100.00;-21120.53;5030620;28;20214;-69
2024/01/06 07:06:33;;;;;;;4.10;3.70;;;;;;;5.26;100.00;-21117.56;5030114;28;20259;-66
2024/01/06 07:08:58;;;;;;;3.57;3.27;;;;;;;5.57;100.00;-21124.81;5029115;28;20178;-66
2024/01/06 07:11:24;;;;;;;2.23;2.03;;;;;;;5.56;100.00;-20175.63;5030599;28;20593;-68
2024/01/06 07:13:50;;;;;;;3.47;2.83;;;;;;;5.37;100.00;-19854.97;5030272;28;20164;-66
2024/01/06 07:16:15;;;;;;;2.60;2.50;;;;;;;5.48;100.00;-19540.97;5030398;28;20230;-69
2024/01/06 07:18:41;;;;;;;2.40;2.17;;;;;;;5.46;100.00;-19856.94;5030370;28;20703;-68
2024/01/06 07:21:07;;;;;;;2.67;2.47;;;;;;;5.46;100.00;-18591.19;5030759;28;20241;-69
2024/01/06 07:23:32;;;;;;;7.83;3.67;;;;;;;5.44;100.00;-18907.25;5030805;28;20253;-66
2024/01/06 07:25:58;;;;;;;2.40;2.20;;;;;;;5.69;100.00;-19228.84;5030349;28;20187;-67
2024/01/06 07:28:24;;;;;;;3.13;2.83;;;;;;;5.65;100.00;-18911.56;5033734;28;20583;-69
2024/01/06 07:30:49;;;;;;;2.47;2.37;;;;;;;5.77;100.00;-17647.13;5029365;28;20183;-67
2024/01/06 07:33:14;;;;;;;3.53;2.70;;;;;;;5.63;100.00;-18277.91;5030118;28;20821;-68
2024/01/06 07:35:43;;;;;;;4.07;3.13;;;;;;;5.70;100.00;-18912.59;5029813;28;20194;-69
2024/01/06 07:38:10;;;;;;;5.57;2.83;;;;;;;5.50;100.00;-18908.56;5033456;28;20583;-70
2024/01/06 07:40:38;;;;;;;4.97;4.03;;;;;;;5.90;100.00;-18599.69;5034299;28;20282;-67
2024/01/06 07:43:04;;;;;;;4.43;4.13;;;;;;;5.69;100.00;-18595.69;5034195;28;20179;-65
2024/01/06 07:45:32;;;;;;;3.97;3.57;;;;;;;5.67;100.00;-18278.66;5034524;28;20565;-65
2024/01/06 07:48:01;;;;;;;4.40;3.40;;;;;;;5.92;100.00;-17332.97;5034253;28;20179;-66
2024/01/06 07:50:27;;;;;;;3.17;2.93;;;;;;;5.96;100.00;-17967.28;5034169;28;20596;-66
2024/01/06 07:52:53;;;;;;;4.43;3.67;;;;;;;5.67;100.00;-18278.75;5049222;28;20210;-65
2024/01/06 07:55:19;;;;;;;4.30;3.90;;;;;;;6.16;100.00;-18287.91;5033466;28;20659;-65
2024/01/06 07:57:45;;;;;;;4.63;3.93;;;;;;;6.05;100.00;-18285.91;5033977;28;20188;-68
2024/01/06 08:00:14;;;;;;;3.40;3.10;;;;;;;6.31;100.00;-17656.66;5034316;28;20183;-66
2024/01/06 08:02:40;;;;;;;2.57;2.30;;;;;;;6.19;100.00;-17654.59;5033927;28;20175;-67
2024/01/06 08:05:06;;;;;;;3.90;3.57;;;;;;;5.56;100.00;-17959.97;5033531;28;20171;-69
2024/01/06 08:07:32;;;;;;;4.23;3.83;;;;;;;6.27;100.00;-17655.94;5032260;28;20276;-68
2024/01/06 08:09:58;;;;;;;4.33;3.93;;;;;;;6.26;100.00;-17338.81;5033409;28;20171;-66
2024/01/06 08:12:24;;;;;;;2.90;2.70;;;;;;;6.54;100.00;-17026.44;5034284;28;20222;-64
2024/01/06 08:14:49;;;;;;;3.93;3.20;;;;;;;6.50;100.00;-17025.75;5033838;28;20597;-68
2024/01/06 08:17:15;;;;;;;2.90;2.67;;;;;;;6.83;100.00;-17031.34;5033600;28;20245;-68
2024/01/06 08:19:41;;;;;;;2.70;2.50;;;;;;;6.92;100.00;-17032.78;5033613;28;20268;-67
2024/01/06 08:22:07;;;;;;;2.93;2.73;;;;;;;6.96;100.00;-17033.44;5033424;28;20531;-67
2024/01/06 08:24:33;;;;;;;3.67;3.30;;;;;;;7.20;100.00;-16402.25;5033610;28;20327;-66
2024/01/06 08:26:59;;;;;;;1.63;1.53;;;;;;;7.05;100.00;-16400.03;5036651;28;20225;-64
2024/01/06 08:29:25;;;;;;;2.13;2.03;;;;;;;7.29;100.00;-15450.53;5033491;28;20183;-68
2024/01/06 08:31:52;;;;;;;2.90;2.53;;;;;;;7.27;100.00;-14814.72;5033391;28;20176;-68
2024/01/06 08:34:18;;;;;;;2.53;2.33;;;;;;;7.23;100.00;-14496.44;5033212;28;20205;-65
2024/01/06 08:36:43;;;;;;;3.33;3.07;;;;;;;7.37;100.00;-14180.25;5032626;28;20231;-68
2024/01/06 08:39:09;;;;;;;4.20;2.67;;;;;;;7.53;100.00;-13228.03;5033090;28;20267;-69
2024/01/06 08:41:34;;;;;;;3.03;2.83;;;;;;;7.55;100.00;-13228.31;5033176;28;20171;-70
2024/01/06 08:44:00;;;;;;;2.77;2.57;;;;;;;7.77;100.00;-11639.06;5033060;28;20179;-68
2024/01/06 08:46:25;;;;;;;5.97;2.77;;;;;;;7.66;100.00;-11956.50;5032634;28;20180;-68
2024/01/06 08:48:50;;;;;;;2.33;2.17;;;;;;;7.39;100.00;-12590.44;5032128;28;20187;-66
2024/01/06 08:51:16;;;;;;;3.40;3.10;;;;;;;7.38;100.00;-12908.41;5032714;28;20210;-67
2024/01/06 08:53:42;;;;;;;2.03;1.77;;;;;;;7.73;100.00;-12911.88;5032490;28;20532;-69
2024/01/06 08:56:09;;;;;;;2.97;2.78;;;;;;;7.55;100.00;-11637.31;5032846;28;20210;-64
2024/01/06 08:58:34;;;;;;;2.20;2.00;;;;;;;7.73;100.00;-10683.53;5031498;28;20529;-65
2024/01/06 09:00:59;;;;;;;2.27;2.07;;;;;;;7.86;100.00;-11002.88;5032689;28;20172;-68
2024/01/06 09:03:25;;;;;;;1.83;1.73;;;;;;;7.60;100.00;-11637.72;5032220;28;20257;-68
2024/01/06 09:05:52;;;;;;;1.93;1.83;;;;;;;7.92;100.00;-11640.22;5032718;28;20631;-67
2024/01/06 09:08:18;;;;;;;2.20;2.10;;;;;;;7.79;100.00;-11320.81;5032165;28;20172;-67
2024/01/06 09:10:43;;;;;;;2.75;2.55;;;;;;;7.95;100.00;-11958.94;5032614;28;20623;-68
2024/01/06 09:13:09;;;;;;;3.95;2.58;;;;;;;8.17;100.00;-11323.56;5032489;28;20171;-67
2024/01/06 09:15:34;;;;;;;2.65;2.45;;;;;;;8.45;100.00;-5263.53;5032030;28;20674;-67
2024/01/06 09:18:00;;;;;;;3.83;3.50;;;;;;;8.27;100.00;-5583.22;5032363;28;20171;-68
2024/01/06 09:20:27;;;;;;;2.70;2.50;;;;;;;8.08;100.00;-9729.69;5032569;28;20214;-68
2024/01/06 09:22:52;;;;;;;2.75;2.40;;;;;;;7.86;100.00;-9091.34;5032174;28;20171;-67
2024/01/06 09:25:18;;;;;;;2.40;2.20;;;;;;;8.23;100.00;-9730.41;5032286;28;20607;-69
2024/01/06 09:27:44;;;;;;;2.42;2.22;;;;;;;8.40;100.00;-9412.31;5033427;28;20202;-69
2024/01/06 09:30:09;;;;;;;3.20;2.92;;;;;;;8.43;100.00;-6540.72;5047170;28;20175;-70
2024/01/06 09:32:35;;;;;;;3.30;2.42;;;;;;;8.52;100.00;-7179.13;5031880;28;20298;-69
2024/01/06 09:35:01;;;;;;;2.85;2.65;;;;;;;8.53;100.00;-7179.16;5031995;28;20175;-67
2024/01/06 09:37:26;;;;;;;2.25;2.05;;;;;;;8.67;100.00;-6859.94;5031599;28;20195;-67
2024/01/06 09:39:51;;;;;;;3.20;2.85;;;;;;;8.63;100.00;-6540.63;5032096;28;20172;-68
2024/01/06 09:42:17;;;;;;;1.85;1.73;;;;;;;8.97;100.00;-5262.19;5032337;28;20182;-68
2024/01/06 09:44:42;;;;;;;1.80;1.70;;;;;;;9.14;100.00;-2063.03;5030754;28;20183;-67
2024/01/06 09:47:12;;;;;;;2.33;2.13;;;;;;;9.06;100.00;-1743.66;5031993;28;20218;-66
2024/01/06 09:49:41;;;;;;;3.25;2.95;;;;;;;9.05;100.00;-2383.72;5031572;28;20300;-67
2024/01/06 09:52:17;;;;;;;3.13;2.90;;;;;;;8.89;100.00;-2384.88;5031765;28;20180;-67
2024/01/06 09:54:53;;;;;;;6.75;3.08;;;;;;;8.95;100.00;-2384.44;5032320;28;20167;-67
2024/01/06 09:57:19;;;;;;;3.40;2.88;;;;;;;9.25;100.00;-2062.19;5032044;28;20191;-66
2024/01/06 09:59:46;;;;;;;3.88;2.78;;;;;;;9.23;100.00;-141.34;5031677;28;20245;-68
2024/01/06 10:02:15;;;;;;;3.03;2.80;;;;;;;9.34;100.00;1141.41;5031513;28;20549;-66
2024/01/06 10:04:42;;;;;;;2.88;2.63;;;;;;;9.54;100.00;1464.63;5031749;28;20171;-65
2024/01/06 10:07:07;;;;;;;3.35;2.95;;;;;;;9.70;100.00;1466.81;5030348;28;20175;-68
2024/01/06 10:09:33;;;;;;;2.80;2.58;;;;;;;9.51;100.00;1464.19;5030520;28;20187;-69
2024/01/06 10:11:59;;;;;;;3.05;2.22;;;;;;;9.55;100.00;3709.53;5032092;28;20229;-68
2024/01/06 10:14:25;;;;;;;4.38;3.40;;;;;;;9.49;100.00;1784.44;5031873;28;20176;-68
2024/01/06 10:16:54;;;;;;;2.63;2.35;;;;;;;9.53;100.00;2105.69;5031104;28;20203;-66
2024/01/06 10:19:20;;;;;;;2.08;1.90;;;;;;;9.87;100.00;2752.28;5031059;28;20238;-66
2024/01/06 10:21:45;;;;;;;2.25;2.05;;;;;;;9.04;100.00;1457.75;5031347;28;20623;-67
2024/01/06 10:24:11;;;;;;;5.20;3.53;;;;;;;9.99;100.00;3396.19;5031033;28;20175;-65
2024/01/06 10:26:36;;;;;;;2.40;1.95;;;;;;;9.99;100.00;3396.19;5031576;28;20168;-66
2024/01/06 10:29:02;;;;;;;4.28;2.08;;;;;;;10.05;100.00;5002.78;5038184;28;20255;-67
2024/01/06 10:31:29;;;;;;;4.95;2.78;;;;;;;9.97;100.00;6285.97;5029195;28;20180;-67
2024/01/06 10:33:55;;;;;;;3.42;3.13;;;;;;;10.30;100.00;7579.22;5031524;28;20227;-66
2024/01/06 10:36:22;;;;;;;2.85;2.50;;;;;;;10.31;100.00;7579.44;5031165;28;20202;-68
2024/01/06 10:38:55;;;;;;;3.65;2.55;;;;;;;10.34;100.00;6937.03;5030021;28;20195;-65
2024/01/06 10:41:22;;;;;;;3.75;2.60;;;;;;;10.40;100.00;6616.75;5030980;28;20174;-67
2024/01/06 10:43:51;;;;;;;4.00;2.10;;;;;;;10.29;100.00;5650.00;5031186;28;20183;-67
2024/01/06 10:46:19;;;;;;;6.70;2.72;;;;;;;10.15;100.00;6932.69;5031027;28;20190;-66
2024/01/06 10:48:46;;;;;;;3.60;3.30;;;;;;;10.16;100.00;6932.94;5021123;28;20191;-67
2024/01/06 10:51:13;;;;;;;2.83;2.63;;;;;;;10.32;100.00;8866.16;5038540;28;20210;-68
2024/01/06 10:53:42;;;;;;;2.88;2.67;;;;;;;10.22;100.00;8220.41;5035105;28;20171;-65
2024/01/06 10:56:10;;;;;;;3.78;3.13;;;;;;;10.31;100.00;7900.91;5031174;28;20207;-66
2024/01/06 10:58:42;;;;;;;3.70;3.40;;;;;;;10.36;100.00;8867.19;5030584;28;20206;-69
2024/01/06 11:01:08;;;;;;;2.50;2.30;;;;;;;10.13;100.00;9826.31;5031391;28;20210;-67
2024/01/06 11:03:36;;;;;;;2.45;2.25;;;;;;;10.44;100.00;11122.59;5029702;28;20561;-68
2024/01/06 11:06:02;;;;;;;3.30;3.00;;;;;;;10.26;100.00;10795.38;5030870;28;20258;-64
2024/01/06 11:08:29;;;;;;;3.58;2.88;;;;;;;10.38;100.00;11120.81;5031022;28;20270;-68
2024/01/06 11:10:56;;;;;;;3.65;2.95;;;;;;;10.50;100.00;14023.88;5029869;28;20253;-67
2024/01/06 11:13:23;;;;;;;3.17;2.95;;;;;;;10.26;100.00;14659.84;5030809;28;20175;-66
2024/01/06 11:15:53;;;;;;;4.05;3.17;;;;;;;10.59;100.00;13059.91;5031035;28;20191;-68
2024/01/06 11:18:34;;;;;;;5.22;3.28;;;;;;;10.93;100.00;13393.56;5030602;28;20229;-67
2024/01/06 11:21:24;;;;;;;4.75;2.67;;;;;;;10.97;100.00;17590.00;5030150;28;20171;-66